Time;durP1;ratioP1;P1;durP2;ratioP2;P2;SDS_P1;SDS_P2;PMS_P1;PMS_P2;Temp;Humidity;BMP_temperature;BMP_pressure;BME280_temperature;BME280_humidity;BME280_pressure;Samples;Min_cycle;Max_cycle;Signal;HPM_P1;HPM_P2
2022/07/21 00:01:52;;;;;;;15.05;8.85;;;;;;;20.55;100.00;95832.78;5010872;28;20484;-77
2022/07/21 00:04:19;;;;;;;17.00;9.02;;;;;;;20.56;100.00;95844.28;5013712;28;20042;-77
2022/07/21 00:06:45;;;;;;;14.95;9.10;;;;;;;20.44;100.00;95842.28;5009955;28;20038;-77
2022/07/21 00:09:12;;;;;;;18.92;9.27;;;;;;;20.38;100.00;95848.94;5006860;28;20066;-77
2022/07/21 00:11:38;;;;;;;15.45;9.30;;;;;;;20.35;100.00;95844.25;5029759;28;20647;-77
2022/07/21 00:14:05;;;;;;;16.95;8.63;;;;;;;20.36;100.00;95843.16;5012986;28;20045;-78
2022/07/21 00:16:31;;;;;;;22.30;9.70;;;;;;;20.27;100.00;95837.88;5009860;28;20049;-78
2022/07/21 00:18:56;;;;;;;15.60;8.98;;;;;;;20.22;100.00;95844.16;5009661;28;20493;-78
2022/07/21 00:21:21;;;;;;;18.40;8.18;;;;;;;20.11;100.00;95850.97;5010519;28;20073;-77
2022/07/21 00:23:47;;;;;;;15.38;8.55;;;;;;;20.10;100.00;95848.63;5027226;28;20124;-78
2022/07/21 00:26:13;;;;;;;15.68;7.97;;;;;;;20.05;100.00;95844.25;5026544;28;20042;-78
2022/07/21 00:28:38;;;;;;;14.23;7.88;;;;;;;20.07;100.00;95847.41;5011266;28;20034;-77
2022/07/21 00:31:04;;;;;;;13.10;7.05;;;;;;;20.00;100.00;95860.47;5024888;28;20462;-79
2022/07/21 00:33:29;;;;;;;14.38;7.00;;;;;;;19.90;100.00;95857.03;5010190;28;20042;-79
2022/07/21 00:35:55;;;;;;;11.95;6.75;;;;;;;19.88;100.00;95859.25;5010394;28;20120;-79
2022/07/21 00:38:20;;;;;;;12.73;6.57;;;;;;;19.84;100.00;95863.69;5010217;28;20049;-78
2022/07/21 00:40:46;;;;;;;14.93;6.90;;;;;;;19.88;100.00;95869.94;5008504;28;20108;-78
2022/07/21 00:43:11;;;;;;;10.90;6.18;;;;;;;19.84;100.00;95877.03;5026498;28;20038;-78
2022/07/21 00:45:37;;;;;;;10.05;6.32;;;;;;;19.78;100.00;95875.59;5019785;28;20037;-78
2022/07/21 00:48:03;;;;;;;10.55;6.22;;;;;;;19.80;100.00;95878.75;5009466;28;20077;-78
2022/07/21 00:50:29;;;;;;;9.10;6.35;;;;;;;19.70;100.00;95871.06;5004997;28;20046;-79
2022/07/21 00:52:55;;;;;;;9.80;6.07;;;;;;;19.74;100.00;95869.34;5011579;28;20046;-78
2022/07/21 00:55:22;;;;;;;11.55;6.97;;;;;;;19.81;100.00;95868.84;5011075;28;20049;-78
2022/07/21 00:57:48;;;;;;;10.80;5.97;;;;;;;19.81;100.00;95858.97;5006799;28;20412;-78
2022/07/21 01:00:17;;;;;;;13.57;6.38;;;;;;;19.79;100.00;95861.16;5006800;28;21435;-78
2022/07/21 01:02:44;;;;;;;10.68;6.15;;;;;;;19.89;100.00;95860.81;5010165;28;20121;-78
2022/07/21 01:05:14;;;;;;;12.38;6.60;;;;;;;19.84;100.00;95861.00;5023078;28;20381;-78
2022/07/21 01:07:45;;;;;;;8.15;6.03;;;;;;;19.85;100.00;95865.22;5013712;28;20088;-78
2022/07/21 01:10:12;;;;;;;10.48;6.35;;;;;;;19.84;100.00;95874.34;5009101;28;20562;-78
2022/07/21 01:12:39;;;;;;;12.57;6.18;;;;;;;19.82;100.00;95868.53;5008502;28;20042;-78
2022/07/21 01:15:07;;;;;;;12.02;6.15;;;;;;;19.83;100.00;95867.44;5005750;28;20045;-78
2022/07/21 01:17:33;;;;;;;10.50;6.00;;;;;;;19.83;100.00;95872.78;5011188;28;20048;-78
2022/07/21 01:20:04;;;;;;;9.40;6.35;;;;;;;19.80;100.00;95868.09;5007863;28;20041;-77
2022/07/21 01:22:30;;;;;;;7.85;6.05;;;;;;;19.81;100.00;95874.19;5000752;28;20069;-78
2022/07/21 01:24:56;;;;;;;10.38;6.40;;;;;;;19.84;100.00;95878.91;5002501;28;20040;-77
2022/07/21 01:27:25;;;;;;;9.90;6.28;;;;;;;19.77;100.00;95871.38;5010207;28;20120;-78
2022/07/21 01:29:51;;;;;;;10.82;6.53;;;;;;;19.72;100.00;95858.19;5012185;28;20057;-77
2022/07/21 01:32:16;;;;;;;9.90;5.85;;;;;;;19.70;100.00;95857.72;5010299;28;20042;-77
2022/07/21 01:34:42;;;;;;;10.13;6.07;;;;;;;19.66;100.00;95854.13;5009311;28;20064;-77
2022/07/21 01:37:07;;;;;;;9.00;6.22;;;;;;;19.64;100.00;95848.31;5024533;28;20088;-77
2022/07/21 01:42:17;;;;;;;11.38;6.63;;;;;;;19.64;100.00;95848.31;5006519;28;20046;-77
2022/07/21 01:44:43;;;;;;;14.13;6.90;;;;;;;19.55;100.00;95846.47;5018386;28;20556;-77
2022/07/21 01:47:08;;;;;;;12.10;6.78;;;;;;;19.46;100.00;95853.69;5003773;28;20042;-77
2022/07/21 01:49:34;;;;;;;10.57;7.00;;;;;;;19.42;100.00;95855.44;5007268;28;20048;-77
2022/07/21 01:52:00;;;;;;;9.55;6.35;;;;;;;19.41;100.00;95856.56;5009026;28;20038;-78
2022/07/21 01:54:25;;;;;;;9.45;6.68;;;;;;;19.38;100.00;95851.84;5026712;28;20073;-77
2022/07/21 01:56:51;;;;;;;11.35;6.95;;;;;;;19.38;100.00;95857.19;5011771;28;20740;-77
2022/07/21 01:59:17;;;;;;;10.48;6.30;;;;;;;19.37;100.00;95856.38;5011984;28;20046;-78
2022/07/21 02:01:42;;;;;;;9.30;6.40;;;;;;;19.33;100.00;95860.00;5004265;28;20038;-77
2022/07/21 02:04:08;;;;;;;10.73;6.43;;;;;;;19.36;100.00;95856.72;5012191;28;20034;-78
2022/07/21 02:06:34;;;;;;;11.98;6.85;;;;;;;19.38;100.00;95857.19;5012344;28;20041;-78
2022/07/21 02:08:59;;;;;;;10.20;7.07;;;;;;;19.44;100.00;95861.25;5011419;28;20401;-78
2022/07/21 02:11:25;;;;;;;12.77;7.10;;;;;;;19.25;100.00;95858.13;5009667;28;20034;-77
2022/07/21 02:13:50;;;;;;;11.23;7.22;;;;;;;19.28;100.00;95857.50;5010239;28;20045;-78
2022/07/21 02:16:16;;;;;;;11.00;6.45;;;;;;;19.36;100.00;95864.72;5012048;28;20579;-78
2022/07/21 02:18:44;;;;;;;10.32;7.03;;;;;;;19.46;100.00;95858.25;5011543;28;20045;-78
2022/07/21 02:21:09;;;;;;;9.43;6.38;;;;;;;19.51;100.00;95869.56;5010840;28;20416;-77
2022/07/21 02:23:35;;;;;;;11.23;6.70;;;;;;;19.40;100.00;95860.31;5010123;28;20042;-77
2022/07/21 02:26:01;;;;;;;10.80;7.30;;;;;;;19.47;100.00;95865.19;5012663;28;20042;-77
2022/07/21 02:28:27;;;;;;;12.95;7.07;;;;;;;19.52;100.00;95863.13;5006883;28;20069;-77
2022/07/21 02:30:53;;;;;;;10.85;7.20;;;;;;;19.47;100.00;95871.28;5020297;28;20092;-77
2022/07/21 02:33:19;;;;;;;13.38;7.60;;;;;;;19.44;100.00;95863.91;5014617;28;20096;-77
2022/07/21 02:35:44;;;;;;;9.80;7.07;;;;;;;19.45;100.00;95873.50;5015173;28;20046;-77
2022/07/21 02:38:11;;;;;;;11.07;7.10;;;;;;;19.42;100.00;95868.78;5009461;28;20046;-78
2022/07/21 02:40:37;;;;;;;11.68;7.65;;;;;;;19.45;100.00;95878.84;5013453;28;20052;-78
2022/07/21 02:43:05;;;;;;;15.88;8.23;;;;;;;19.37;100.00;95882.31;5013323;28;20420;-77
2022/07/21 02:45:31;;;;;;;12.80;7.05;;;;;;;19.40;100.00;95887.00;5014512;28;20499;-77
2022/07/21 02:48:00;;;;;;;12.10;7.03;;;;;;;19.32;100.00;95891.25;5013424;28;20042;-77
2022/07/21 02:50:32;;;;;;;11.52;7.20;;;;;;;19.29;100.00;95883.09;5013280;28;20046;-77
2022/07/21 02:53:00;;;;;;;11.48;7.65;;;;;;;19.29;100.00;95885.75;5013129;28;20045;-77
2022/07/21 02:55:27;;;;;;;13.23;7.35;;;;;;;19.35;100.00;95879.16;5013986;28;20041;-77
2022/07/21 02:58:09;;;;;;;12.27;7.45;;;;;;;19.36;100.00;95886.06;5014624;28;20108;-77
2022/07/21 03:00:37;;;;;;;11.85;8.27;;;;;;;19.31;100.00;95878.22;5007833;28;20121;-77
2022/07/21 03:03:03;;;;;;;11.80;7.43;;;;;;;19.35;100.00;95873.81;5004637;28;20184;-77
2022/07/21 03:05:29;;;;;;;11.85;7.72;;;;;;;19.28;100.00;95873.50;5014230;28;20455;-77
2022/07/21 03:07:55;;;;;;;11.85;7.55;;;;;;;19.38;100.00;95878.53;5007080;28;20038;-77
2022/07/21 03:10:21;;;;;;;11.75;7.70;;;;;;;19.34;100.00;95872.25;5011443;28;20046;-77
2022/07/21 03:12:47;;;;;;;11.52;7.80;;;;;;;19.33;100.00;95876.03;5009915;28;20050;-77
2022/07/21 03:15:12;;;;;;;10.15;7.72;;;;;;;19.27;100.00;95877.28;5012946;28;20072;-76
2022/07/21 03:17:37;;;;;;;13.15;8.73;;;;;;;19.25;100.00;95874.94;5012905;28;20045;-77
2022/07/21 03:20:04;;;;;;;15.88;8.10;;;;;;;19.28;100.00;95873.50;5011429;28;20049;-77
2022/07/21 03:22:30;;;;;;;12.48;8.02;;;;;;;19.26;100.00;95873.06;5012243;28;20069;-77
2022/07/21 03:24:55;;;;;;;12.52;8.32;;;;;;;19.21;100.00;95874.78;5013586;28;20038;-77
2022/07/21 03:27:20;;;;;;;12.48;8.20;;;;;;;19.16;100.00;95871.50;5012692;28;20110;-77
2022/07/21 03:29:46;;;;;;;14.68;8.57;;;;;;;19.18;100.00;95875.41;5006210;28;20089;-77
2022/07/21 03:32:11;;;;;;;15.95;9.52;;;;;;;19.24;100.00;95867.22;5013103;28;20064;-77
2022/07/21 03:34:37;;;;;;;15.18;9.70;;;;;;;19.25;100.00;95868.81;5007616;28;20451;-77
2022/07/21 03:37:02;;;;;;;14.50;9.35;;;;;;;19.19;100.00;95860.97;5012720;28;20146;-77
2022/07/21 03:39:28;;;;;;;15.45;9.25;;;;;;;19.26;100.00;95865.81;5012493;28;20045;-77
2022/07/21 03:41:53;;;;;;;15.13;9.18;;;;;;;19.30;100.00;95855.31;5012234;28;20484;-77
2022/07/21 03:44:19;;;;;;;14.48;9.60;;;;;;;19.31;100.00;95867.53;5011148;28;20085;-77
2022/07/21 03:46:44;;;;;;;13.48;9.40;;;;;;;19.38;100.00;95865.19;5013072;28;20042;-77
2022/07/21 03:49:10;;;;;;;12.93;9.30;;;;;;;19.44;100.00;95866.59;5012235;28;20049;-77
2022/07/21 03:51:35;;;;;;;15.95;10.65;;;;;;;19.46;100.00;95872.38;5012965;28;20049;-77
2022/07/21 03:54:02;;;;;;;16.98;10.32;;;;;;;19.48;100.00;95894.22;5014973;28;20061;-77
2022/07/21 03:56:27;;;;;;;16.55;10.20;;;;;;;19.48;100.00;95888.06;5007079;28;20042;-77
2022/07/21 03:58:53;;;;;;;14.13;10.27;;;;;;;19.52;100.00;95899.69;5010282;28;20041;-78
2022/07/21 04:01:19;;;;;;;13.45;9.30;;;;;;;19.53;100.00;95893.25;5011581;28;20045;-78
2022/07/21 04:03:44;;;;;;;14.45;9.63;;;;;;;19.50;100.00;95902.69;5010329;28;20492;-78
2022/07/21 04:06:10;;;;;;;17.15;10.40;;;;;;;19.53;100.00;95907.38;5026403;28;20053;-78
2022/07/21 04:08:37;;;;;;;15.30;10.38;;;;;;;19.52;100.00;95905.84;5010085;28;20042;-78
2022/07/21 04:11:03;;;;;;;15.02;10.38;;;;;;;19.54;100.00;95908.94;5007277;28;20499;-77
2022/07/21 04:13:28;;;;;;;16.17;10.40;;;;;;;19.53;100.00;95918.06;5015444;28;20120;-77
2022/07/21 04:15:54;;;;;;;17.13;11.40;;;;;;;19.55;100.00;95909.72;5012103;28;20034;-77
2022/07/21 04:18:19;;;;;;;20.65;11.18;;;;;;;19.58;100.00;95903.75;5012211;28;20076;-77
2022/07/21 04:20:45;;;;;;;18.75;11.43;;;;;;;19.63;100.00;95916.16;5010602;28;20647;-77
2022/07/21 04:23:10;;;;;;;15.88;11.43;;;;;;;19.71;100.00;95912.66;5009196;28;20116;-77
2022/07/21 04:25:38;;;;;;;15.77;11.50;;;;;;;19.72;100.00;95915.06;5011542;28;20030;-77
2022/07/21 04:28:03;;;;;;;17.58;11.65;;;;;;;19.70;100.00;95917.25;5007312;28;20050;-77
2022/07/21 04:30:29;;;;;;;19.30;12.48;;;;;;;19.73;100.00;95921.16;5011105;28;20048;-77
2022/07/21 04:32:55;;;;;;;22.88;12.32;;;;;;;19.76;100.00;95920.53;5012354;28;20049;-77
2022/07/21 04:35:21;;;;;;;17.27;12.40;;;;;;;19.75;100.00;95926.97;5011777;28;20046;-77
2022/07/21 04:37:47;;;;;;;18.08;12.25;;;;;;;19.72;100.00;95930.28;5009252;28;20042;-77
2022/07/21 04:40:14;;;;;;;17.33;12.50;;;;;;;19.74;100.00;95938.75;5002677;28;20574;-77
2022/07/21 04:42:41;;;;;;;17.55;13.02;;;;;;;19.72;100.00;95935.59;5001725;28;20459;-78
2022/07/21 04:45:08;;;;;;;18.65;12.52;;;;;;;19.73;100.00;95950.53;5009408;28;20104;-77
2022/07/21 04:47:52;;;;;;;17.83;12.38;;;;;;;19.69;100.00;95941.59;5002419;28;20037;-77
2022/07/21 04:50:20;;;;;;;18.70;12.35;;;;;;;19.71;100.00;95939.38;5007970;28;20042;-77
2022/07/21 04:52:46;;;;;;;20.00;12.75;;;;;;;19.71;100.00;95939.38;5011654;28;20120;-77
2022/07/21 04:55:13;;;;;;;20.88;12.75;;;;;;;19.73;100.00;95937.97;5011148;28;20504;-78
2022/07/21 04:57:41;;;;;;;21.25;12.95;;;;;;;19.72;100.00;95941.75;5008353;28;20042;-78
2022/07/21 05:00:09;;;;;;;19.80;13.23;;;;;;;19.72;100.00;95946.28;5009007;28;20124;-77
2022/07/21 05:02:34;;;;;;;17.60;13.02;;;;;;;19.73;100.00;95947.88;5011382;28;20042;-78
2022/07/21 05:05:01;;;;;;;20.55;13.57;;;;;;;19.75;100.00;95959.00;5011866;28;20068;-77
2022/07/21 05:07:27;;;;;;;20.25;13.30;;;;;;;19.85;100.00;95966.69;5007002;28;20037;-78
2022/07/21 05:09:52;;;;;;;21.95;13.32;;;;;;;19.85;100.00;95955.25;5007966;28;20189;-77
2022/07/21 05:12:18;;;;;;;18.92;12.68;;;;;;;19.90;100.00;95963.88;5004411;28;20056;-77
2022/07/21 05:14:43;;;;;;;19.85;13.25;;;;;;;19.82;100.00;95966.56;5010974;28;20431;-77
2022/07/21 05:17:08;;;;;;;20.17;12.65;;;;;;;19.92;100.00;95970.78;5011944;28;20038;-77
2022/07/21 05:19:34;;;;;;;19.77;13.70;;;;;;;19.94;100.00;95973.91;5009705;28;20042;-77
2022/07/21 05:21:59;;;;;;;22.20;13.20;;;;;;;19.97;100.00;95975.94;5007705;28;20042;-77
2022/07/21 05:24:25;;;;;;;23.02;13.23;;;;;;;19.96;100.00;95977.06;5004339;28;20046;-77
2022/07/21 05:26:50;;;;;;;22.17;13.32;;;;;;;19.99;100.00;95981.78;5009717;28;20534;-78
2022/07/21 05:29:16;;;;;;;21.98;13.43;;;;;;;20.11;100.00;95979.22;5007420;28;20041;-79
2022/07/21 05:31:41;;;;;;;21.30;13.23;;;;;;;20.09;100.00;95981.44;5011548;28;20042;-78
2022/07/21 05:34:07;;;;;;;21.70;14.25;;;;;;;20.09;100.00;95986.78;5010705;28;20104;-77
2022/07/21 05:36:32;;;;;;;23.92;14.82;;;;;;;20.17;100.00;95988.66;5022895;28;20039;-78
2022/07/21 05:38:58;;;;;;;19.80;13.05;;;;;;;20.12;100.00;95991.47;5008167;28;20038;-78
2022/07/21 05:41:24;;;;;;;22.10;14.10;;;;;;;20.16;100.00;95987.06;5004011;28;20046;-78
2022/07/21 05:43:49;;;;;;;22.05;15.05;;;;;;;20.22;100.00;95990.34;5007631;28;20034;-77
2022/07/21 05:46:15;;;;;;;23.02;14.40;;;;;;;20.39;100.00;95984.94;5012582;28;20038;-78
2022/07/21 05:48:40;;;;;;;19.42;14.00;;;;;;;20.35;100.00;95988.56;5009545;28;21880;-77
2022/07/21 05:51:07;;;;;;;20.25;13.93;;;;;;;20.44;100.00;95986.63;4999905;28;20050;-77
2022/07/21 05:53:32;;;;;;;20.63;14.25;;;;;;;20.55;100.00;95995.09;5010913;28;20500;-78
2022/07/21 05:55:58;;;;;;;23.05;13.65;;;;;;;20.64;100.00;95992.38;5010976;28;20088;-78
2022/07/21 05:58:24;;;;;;;22.17;15.07;;;;;;;20.55;100.00;95993.19;5001904;28;20042;-79
2022/07/21 06:01:09;;;;;;;19.20;14.07;;;;;;;20.64;100.00;95997.72;5011892;28;20034;-77
2022/07/21 06:03:46;;;;;;;25.45;14.52;;;;;;;20.76;100.00;95995.19;5011829;28;20492;-78
2022/07/21 06:06:13;;;;;;;22.42;13.75;;;;;;;20.79;100.00;95997.22;5007948;28;20056;-78
2022/07/21 06:08:41;;;;;;;23.15;14.00;;;;;;;20.76;100.00;95992.53;5004702;28;20046;-78
2022/07/21 06:11:07;;;;;;;21.52;14.40;;;;;;;20.81;100.00;95995.00;5008556;28;20042;-78
2022/07/21 06:13:33;;;;;;;24.17;13.88;;;;;;;20.86;100.00;95992.16;5007152;28;20042;-80
2022/07/21 06:15:59;;;;;;;22.13;14.60;;;;;;;20.89;100.00;95994.16;5022219;28;20092;-79
2022/07/21 06:18:24;;;;;;;19.90;14.63;;;;;;;20.98;100.00;96001.38;5009361;28;20049;-78
2022/07/21 06:20:50;;;;;;;21.90;13.85;;;;;;;21.10;100.00;96001.44;5008521;28;20038;-78
2022/07/21 06:23:15;;;;;;;21.75;14.60;;;;;;;21.09;100.00;96013.25;5009761;28;20034;-80
2022/07/21 06:25:41;;;;;;;19.60;13.50;;;;;;;21.00;100.00;96012.50;5005264;28;20046;-80
2022/07/21 06:28:07;;;;;;;21.98;14.23;;;;;;;21.15;100.00;96014.63;5023845;28;20052;-79
2022/07/21 06:30:33;;;;;;;22.83;13.75;;;;;;;21.13;100.00;96022.19;5007409;28;20133;-79
2022/07/21 06:32:58;;;;;;;23.35;14.60;;;;;;;21.22;100.00;96014.91;5007933;28;20058;-79
2022/07/21 06:35:24;;;;;;;21.95;14.52;;;;;;;21.23;100.00;96015.66;5023625;28;20100;-79
2022/07/21 06:37:52;;;;;;;21.33;13.98;;;;;;;21.31;100.00;96022.09;5002326;28;20479;-79
2022/07/21 06:40:18;;;;;;;22.80;14.48;;;;;;;21.28;100.00;96024.28;5019801;28;20038;-80
2022/07/21 06:42:43;;;;;;;21.73;15.02;;;;;;;21.24;100.00;96022.59;5005765;28;20092;-80
2022/07/21 06:45:09;;;;;;;23.30;15.25;;;;;;;21.15;100.00;96025.34;5008058;28;20034;-77
2022/07/21 06:47:35;;;;;;;24.17;16.60;;;;;;;21.08;100.00;96028.50;5008470;28;20408;-78
2022/07/21 06:50:02;;;;;;;23.23;14.85;;;;;;;21.18;100.00;96024.69;5006362;28;20399;-77
2022/07/21 06:52:33;;;;;;;23.15;15.68;;;;;;;21.00;100.00;96023.22;5009085;28;20038;-81
2022/07/21 06:54:58;;;;;;;23.23;16.95;;;;;;;21.21;100.00;96029.38;5026964;28;20069;-79
2022/07/21 06:57:24;;;;;;;24.58;16.33;;;;;;;21.29;100.00;96036.56;5011184;28;20042;-81
2022/07/21 06:59:50;;;;;;;25.73;15.95;;;;;;;21.42;100.00;96037.44;5009200;28;22194;-79
2022/07/21 07:02:15;;;;;;;26.42;16.52;;;;;;;21.43;100.00;96040.88;5012534;28;20056;-78
2022/07/21 07:04:43;;;;;;;26.98;17.45;;;;;;;21.44;100.00;96042.47;5008507;28;20915;-78
2022/07/21 07:07:09;;;;;;;25.20;16.13;;;;;;;21.52;100.00;96038.97;5011605;28;20049;-78
2022/07/21 07:09:35;;;;;;;21.48;15.18;;;;;;;21.62;100.00;96038.56;5010449;28;20070;-79
2022/07/21 07:12:04;;;;;;;21.73;16.17;;;;;;;21.59;100.00;96038.44;5002007;28;20465;-80
2022/07/21 07:14:30;;;;;;;24.30;16.48;;;;;;;21.69;100.00;96042.59;5018384;28;20056;-77
2022/07/21 07:16:56;;;;;;;28.02;16.52;;;;;;;21.59;100.00;96041.09;5006873;28;20038;-79
2022/07/21 07:19:22;;;;;;;23.50;15.30;;;;;;;21.73;100.00;96040.84;5012194;28;20045;-79
2022/07/21 07:21:48;;;;;;;20.95;15.25;;;;;;;21.63;100.00;96040.13;5004938;28;20060;-82
2022/07/21 07:24:13;;;;;;;27.67;14.70;;;;;;;21.80;100.00;96043.78;5014545;28;20651;-83
2022/07/21 07:26:38;;;;;;;23.13;14.25;;;;;;;21.76;100.00;96037.50;5013454;28;20042;-78
2022/07/21 07:29:04;;;;;;;18.33;13.18;;;;;;;21.75;100.00;96033.25;5014436;28;20113;-79
2022/07/21 07:31:30;;;;;;;18.60;13.63;;;;;;;21.78;100.00;96037.97;5029565;28;20045;-78
2022/07/21 07:33:57;;;;;;;21.20;13.55;;;;;;;21.89;100.00;96041.78;5014653;28;20053;-78
2022/07/21 07:36:26;;;;;;;20.95;13.77;;;;;;;22.04;100.00;96042.28;5006246;28;20101;-78
2022/07/21 07:38:52;;;;;;;21.38;13.38;;;;;;;21.87;99.37;96049.38;5007752;28;20072;-77
2022/07/21 07:41:19;;;;;;;24.92;14.27;;;;;;;21.86;100.00;96042.44;5006189;28;20412;-78
2022/07/21 07:43:45;;;;;;;22.40;13.40;;;;;;;21.96;100.00;96047.41;5010291;28;20047;-76
2022/07/21 07:46:12;;;;;;;20.15;13.90;;;;;;;21.90;99.42;96053.31;5009949;28;20042;-76
2022/07/21 07:48:40;;;;;;;18.88;13.85;;;;;;;21.91;99.32;96052.97;5004344;28;20165;-76
2022/07/21 07:51:06;;;;;;;18.55;13.45;;;;;;;21.79;99.14;96050.22;5010006;28;20050;-78
2022/07/21 07:53:31;;;;;;;19.92;13.45;;;;;;;21.84;99.92;96052.72;5023020;28;20116;-76
2022/07/21 07:55:57;;;;;;;20.58;14.23;;;;;;;21.89;99.74;96063.22;5018203;28;20080;-77
2022/07/21 07:58:22;;;;;;;21.30;13.35;;;;;;;21.96;98.86;96052.75;5009977;28;20073;-79
2022/07/21 08:00:48;;;;;;;17.60;12.95;;;;;;;21.86;100.00;96052.41;5011791;28;20045;-77
2022/07/21 08:03:14;;;;;;;20.85;12.82;;;;;;;22.04;97.65;96053.00;5011984;28;20042;-78
2022/07/21 08:05:39;;;;;;;18.90;12.38;;;;;;;22.08;97.85;96048.56;5007560;28;20041;-77
2022/07/21 08:08:05;;;;;;;17.77;12.50;;;;;;;22.21;96.95;96058.22;5008992;28;20042;-79
2022/07/21 08:10:31;;;;;;;19.42;11.55;;;;;;;22.07;97.46;96052.38;5009750;28;20041;-79
2022/07/21 08:12:56;;;;;;;22.17;12.82;;;;;;;22.11;97.40;96047.88;5014436;28;20045;-78
2022/07/21 08:15:22;;;;;;;17.58;12.23;;;;;;;22.09;97.85;96055.50;5014331;28;20052;-79
2022/07/21 08:17:47;;;;;;;20.08;12.95;;;;;;;21.93;97.62;96058.78;5015895;28;20064;-78
2022/07/21 08:20:13;;;;;;;20.02;12.95;;;;;;;21.93;98.31;96069.50;5011505;28;20156;-78
2022/07/21 08:22:38;;;;;;;19.08;13.63;;;;;;;21.95;97.61;96063.81;5028962;28;20037;-80
2022/07/21 08:25:05;;;;;;;17.80;12.82;;;;;;;21.84;99.20;96054.59;5027053;28;20042;-79
2022/07/21 08:27:30;;;;;;;19.73;12.85;;;;;;;21.86;98.64;96053.16;5011379;28;20046;-79
2022/07/21 08:29:56;;;;;;;20.17;13.02;;;;;;;21.85;100.00;96059.66;5010564;28;20799;-78
2022/07/21 08:32:21;;;;;;;18.77;13.05;;;;;;;21.84;99.68;96066.13;5026744;28;20049;-79
2022/07/21 08:34:48;;;;;;;18.17;12.38;;;;;;;21.95;99.73;96061.94;5010543;28;20081;-78
2022/07/21 08:37:13;;;;;;;18.67;13.10;;;;;;;22.02;98.49;96060.59;5019157;28;20068;-77
2022/07/21 08:39:38;;;;;;;22.10;13.32;;;;;;;21.74;99.74;96061.16;5007118;28;20058;-77
2022/07/21 08:42:07;;;;;;;19.88;13.65;;;;;;;21.65;100.00;96063.13;5009266;28;20041;-78
2022/07/21 08:44:33;;;;;;;23.80;13.55;;;;;;;21.68;100.00;96062.47;5003485;28;20066;-78
2022/07/21 08:46:59;;;;;;;19.67;13.30;;;;;;;21.60;100.00;96064.09;5002757;28;20510;-78
2022/07/21 08:49:25;;;;;;;23.08;12.90;;;;;;;21.56;100.00;96063.97;5008492;28;20038;-78
2022/07/21 08:51:52;;;;;;;18.45;13.13;;;;;;;21.60;100.00;96062.19;5005597;28;20042;-77
2022/07/21 08:54:21;;;;;;;17.80;13.05;;;;;;;21.71;100.00;96072.53;5009260;28;20136;-78
2022/07/21 08:56:47;;;;;;;24.65;13.75;;;;;;;21.66;100.00;96064.69;5009054;28;20046;-78
2022/07/21 08:59:13;;;;;;;18.60;12.77;;;;;;;21.70;100.00;96065.59;5005970;28;20045;-78
2022/07/21 09:01:38;;;;;;;21.23;13.27;;;;;;;21.58;100.00;96069.78;5009660;28;20432;-77
2022/07/21 09:04:27;;;;;;;22.00;13.32;;;;;;;21.55;100.00;96075.00;5009512;28;20471;-76
2022/07/21 09:07:05;;;;;;;17.92;13.82;;;;;;;21.69;100.00;96069.38;5009282;28;20038;-76
2022/07/21 09:09:32;;;;;;;18.83;13.32;;;;;;;21.62;100.00;96076.06;5021245;28;20065;-76
2022/07/21 09:11:59;;;;;;;21.67;13.63;;;;;;;21.59;100.00;96075.91;5008797;28;20495;-77
2022/07/21 09:14:29;;;;;;;26.35;13.98;;;;;;;21.52;100.00;96073.78;5002006;28;20572;-76
2022/07/21 09:17:02;;;;;;;22.15;13.65;;;;;;;21.60;100.00;96072.13;5009607;28;20540;-77
2022/07/21 09:19:35;;;;;;;22.33;13.40;;;;;;;21.37;100.00;96074.31;4998343;28;20038;-77
2022/07/21 09:22:06;;;;;;;20.58;13.07;;;;;;;21.52;100.00;96076.47;5002220;28;20029;-76
2022/07/21 09:24:40;;;;;;;20.60;12.60;;;;;;;21.53;100.00;96078.00;5008283;28;20062;-77
2022/07/21 09:27:14;;;;;;;29.75;12.80;;;;;;;21.39;100.00;96077.44;4999765;28;20120;-77
2022/07/21 09:29:56;;;;;;;22.90;12.65;;;;;;;21.25;100.00;96073.13;5003464;28;20514;-76
2022/07/21 09:32:37;;;;;;;20.27;13.23;;;;;;;21.27;100.00;96075.47;5008476;28;20053;-77
2022/07/21 09:35:18;;;;;;;21.17;13.20;;;;;;;21.11;100.00;96072.56;5003608;28;20050;-77
2022/07/21 09:37:43;;;;;;;32.22;12.82;;;;;;;21.26;100.00;96074.69;5007699;28;20496;-77
2022/07/21 09:40:11;;;;;;;18.88;12.20;;;;;;;21.26;100.00;96080.06;5006967;28;20053;-77
2022/07/21 09:42:42;;;;;;;27.90;12.73;;;;;;;21.28;100.00;96075.16;4999430;28;20744;-77
2022/07/21 09:45:13;;;;;;;17.13;12.48;;;;;;;21.43;100.00;96083.72;5023169;28;20038;-76
2022/07/21 09:47:40;;;;;;;16.83;11.48;;;;;;;21.42;100.00;96082.13;5009100;28;20521;-76
2022/07/21 09:50:07;;;;;;;17.20;11.98;;;;;;;21.33;100.00;96081.44;5023049;28;20558;-77
2022/07/21 09:52:39;;;;;;;22.67;11.57;;;;;;;21.39;100.00;96090.81;5007583;28;20037;-76
2022/07/21 09:55:06;;;;;;;24.83;12.82;;;;;;;21.24;100.00;96092.97;5008758;28;20161;-76
2022/07/21 09:57:32;;;;;;;19.52;12.77;;;;;;;21.20;100.00;96092.03;4999196;28;20686;-76
2022/07/21 09:59:59;;;;;;;19.92;13.10;;;;;;;20.98;100.00;96103.03;5007602;28;20038;-76
2022/07/21 10:02:32;;;;;;;19.73;13.32;;;;;;;20.76;100.00;96099.50;5004685;28;20053;-77
2022/07/21 10:05:09;;;;;;;19.40;12.80;;;;;;;20.47;100.00;96103.63;5000861;28;20042;-77
2022/07/21 10:07:37;;;;;;;23.45;14.00;;;;;;;20.21;100.00;96101.81;5007640;28;20034;-77
2022/07/21 10:10:03;;;;;;;19.02;13.85;;;;;;;20.41;100.00;96104.91;5005484;28;20057;-77
2022/07/21 10:12:30;;;;;;;23.65;14.15;;;;;;;20.40;100.00;96108.66;5009097;28;20062;-77
2022/07/21 10:14:56;;;;;;;20.73;14.20;;;;;;;20.34;100.00;96104.59;5006072;28;20041;-77
2022/07/21 10:17:23;;;;;;;22.35;14.68;;;;;;;19.88;100.00;96110.31;5004117;28;20675;-77
2022/07/21 10:20:02;;;;;;;22.20;13.93;;;;;;;19.94;100.00;96115.47;5003315;28;20041;-77
2022/07/21 10:22:46;;;;;;;22.25;14.20;;;;;;;20.01;100.00;96113.13;5010175;28;20050;-77
2022/07/21 10:25:11;;;;;;;21.40;15.35;;;;;;;19.98;100.00;96116.44;5010978;28;20045;-78
2022/07/21 10:27:37;;;;;;;23.25;14.40;;;;;;;19.95;100.00;96109.06;5009397;28;20038;-79
2022/07/21 10:30:04;;;;;;;21.50;14.65;;;;;;;19.76;100.00;96112.78;5009024;28;20041;-78
2022/07/21 10:32:29;;;;;;;21.98;14.73;;;;;;;19.86;100.00;96112.50;5010044;28;20037;-78
2022/07/21 10:34:57;;;;;;;22.77;14.43;;;;;;;19.97;100.00;96120.19;5025223;28;20049;-77
2022/07/21 10:37:40;;;;;;;22.80;15.93;;;;;;;19.79;100.00;96117.53;5002533;28;20054;-78
2022/07/21 10:40:18;;;;;;;29.77;16.27;;;;;;;19.80;100.00;96121.78;5010235;28;20042;-77
2022/07/21 10:42:43;;;;;;;24.58;16.02;;;;;;;19.79;100.00;96117.53;5010149;28;20045;-77
2022/07/21 10:45:30;;;;;;;25.65;16.30;;;;;;;19.88;100.00;96113.00;5011097;28;20113;-78
2022/07/21 10:47:56;;;;;;;25.13;16.85;;;;;;;19.98;100.00;96108.41;5009763;28;20081;-77
2022/07/21 10:50:31;;;;;;;29.20;17.45;;;;;;;19.78;100.00;96099.88;5008298;28;20049;-77
2022/07/21 10:52:59;;;;;;;24.35;16.75;;;;;;;19.82;100.00;96110.78;5015922;28;20042;-78
2022/07/21 10:55:27;;;;;;;28.80;18.10;;;;;;;19.86;100.00;96112.50;5013828;28;20496;-77
2022/07/21 10:58:13;;;;;;;23.67;16.52;;;;;;;19.98;100.00;96119.09;5014642;28;20084;-78
2022/07/21 11:01:04;;;;;;;22.90;17.13;;;;;;;20.01;100.00;96118.47;5028304;28;20038;-78
2022/07/21 11:03:38;;;;;;;25.15;17.88;;;;;;;20.02;100.00;96114.69;5015269;28;20515;-77
2022/07/21 11:06:13;;;;;;;24.98;16.88;;;;;;;20.22;100.00;96114.03;5014614;28;20042;-78
2022/07/21 11:08:41;;;;;;;26.48;17.27;;;;;;;20.20;100.00;96105.56;5015604;28;20068;-77
2022/07/21 11:11:11;;;;;;;25.45;17.00;;;;;;;20.33;100.00;96108.38;5011821;28;20046;-78
2022/07/21 11:13:58;;;;;;;25.60;17.35;;;;;;;20.40;100.00;96100.66;5016924;28;20671;-78
2022/07/21 11:16:55;;;;;;;27.92;16.58;;;;;;;20.66;100.00;96108.63;5029280;28;20432;-77